sensor_id;sensor_type;location;lat;lon;timestamp;pressure;altitude;pressure_sealevel;temperature;humidity
46456;BME280;64052;47.466;9.094;2023-02-01T00:01:57;96530.53;;;8.66;46.36
46456;BME280;64052;47.466;9.094;2023-02-01T00:06:59;96514.97;;;8.76;46.16
46456;BME280;64052;47.466;9.094;2023-02-01T00:12:01;96501.84;;;8.76;45.83
46456;BME280;64052;47.466;9.094;2023-02-01T00:17:03;96502.50;;;8.93;45.66
46456;BME280;64052;47.466;9.094;2023-02-01T00:22:05;96507.13;;;8.89;45.25
46456;BME280;64052;47.466;9.094;2023-02-01T00:27:07;96495.97;;;8.85;45.73
46456;BME280;64052;47.466;9.094;2023-02-01T00:32:10;96489.44;;;8.78;45.93
46456;BME280;64052;47.466;9.094;2023-02-01T00:37:12;96484.28;;;8.77;45.06
46456;BME280;64052;47.466;9.094;2023-02-01T00:42:14;96489.34;;;8.67;45.77
46456;BME280;64052;47.466;9.094;2023-02-01T00:47:16;96494.94;;;8.48;45.41
46456;BME280;64052;47.466;9.094;2023-02-01T00:52:18;96489.31;;;8.26;46.37
46456;BME280;64052;47.466;9.094;2023-02-01T00:57:20;96485.72;;;8.14;46.69
46456;BME280;64052;47.466;9.094;2023-02-01T01:02:26;96477.38;;;8.08;46.79
46456;BME280;64052;47.466;9.094;2023-02-01T01:07:28;96475.84;;;8.18;46.21
46456;BME280;64052;47.466;9.094;2023-02-01T01:12:30;96469.44;;;8.22;46.24
46456;BME280;64052;47.466;9.094;2023-02-01T01:17:32;96477.09;;;8.25;45.59
46456;BME280;64052;47.466;9.094;2023-02-01T01:22:34;96477.97;;;8.26;46.22
46456;BME280;64052;47.466;9.094;2023-02-01T01:27:36;96483.34;;;7.97;46.24
46456;BME280;64052;47.466;9.094;2023-02-01T01:32:39;96481.81;;;7.80;47.24
46456;BME280;64052;47.466;9.094;2023-02-01T01:37:42;96479.41;;;7.90;46.89
46456;BME280;64052;47.466;9.094;2023-02-01T01:42:44;96468.19;;;8.15;45.84
46456;BME280;64052;47.466;9.094;2023-02-01T01:47:56;96472.06;;;8.22;46.32
46456;BME280;64052;47.466;9.094;2023-02-01T01:53:00;96461.66;;;8.21;45.98
46456;BME280;64052;47.466;9.094;2023-02-01T01:58:08;96438.88;;;8.21;46.76
46456;BME280;64052;47.466;9.094;2023-02-01T02:03:19;96445.56;;;8.12;46.32
46456;BME280;64052;47.466;9.094;2023-02-01T02:08:23;96465.59;;;8.00;46.94
46456;BME280;64052;47.466;9.094;2023-02-01T02:13:34;96464.41;;;7.92;46.78
46456;BME280;64052;47.466;9.094;2023-02-01T02:45:07;96457.16;;;7.68;47.73
46456;BME280;64052;47.466;9.094;2023-02-01T02:50:28;96453.41;;;7.72;47.18
46456;BME280;64052;47.466;9.094;2023-02-01T02:55:36;96454.44;;;7.69;47.29
46456;BME280;64052;47.466;9.094;2023-02-01T03:00:40;96465.03;;;7.68;47.69
46456;BME280;64052;47.466;9.094;2023-02-01T03:05:45;96454.03;;;7.76;47.34
46456;BME280;64052;47.466;9.094;2023-02-01T03:11:07;96452.72;;;7.83;46.45
46456;BME280;64052;47.466;9.094;2023-02-01T03:16:15;96457.88;;;7.84;46.60
46456;BME280;64052;47.466;9.094;2023-02-01T03:21:32;96454.25;;;7.72;46.71
46456;BME280;64052;47.466;9.094;2023-02-01T03:26:42;96454.50;;;7.55;46.97
46456;BME280;64052;47.466;9.094;2023-02-01T03:31:45;96460.47;;;7.57;47.47
46456;BME280;64052;47.466;9.094;2023-02-01T03:37:09;96464.84;;;7.71;47.31
46456;BME280;64052;47.466;9.094;2023-02-01T03:42:16;96463.44;;;7.65;47.06
46456;BME280;64052;47.466;9.094;2023-02-01T03:47:28;96465.31;;;7.63;46.75
46456;BME280;64052;47.466;9.094;2023-02-01T03:52:42;96447.81;;;7.64;46.74
46456;BME280;64052;47.466;9.094;2023-02-01T03:57:53;96435.34;;;7.67;47.49
46456;BME280;64052;47.466;9.094;2023-02-01T04:02:58;96427.84;;;7.61;47.09
46456;BME280;64052;47.466;9.094;2023-02-01T04:08:00;96436.75;;;7.58;47.60
46456;BME280;64052;47.466;9.094;2023-02-01T04:13:02;96444.25;;;7.65;47.55
46456;BME280;64052;47.466;9.094;2023-02-01T04:18:05;96440.44;;;7.56;47.61
46456;BME280;64052;47.466;9.094;2023-02-01T04:23:07;96441.63;;;7.65;47.26
46456;BME280;64052;47.466;9.094;2023-02-01T04:28:09;96447.84;;;7.77;46.90
46456;BME280;64052;47.466;9.094;2023-02-01T04:33:11;96461.47;;;7.69;47.17
46456;BME280;64052;47.466;9.094;2023-02-01T04:38:13;96471.44;;;7.91;46.78
46456;BME280;64052;47.466;9.094;2023-02-01T04:43:16;96469.00;;;7.88;46.56
46456;BME280;64052;47.466;9.094;2023-02-01T04:48:20;96475.56;;;7.95;46.72
46456;BME280;64052;47.466;9.094;2023-02-01T04:53:27;96490.81;;;8.03;47.11
46456;BME280;64052;47.466;9.094;2023-02-01T04:58:29;96513.22;;;8.09;47.07
46456;BME280;64052;47.466;9.094;2023-02-01T05:03:32;96516.94;;;8.19;46.51
46456;BME280;64052;47.466;9.094;2023-02-01T05:08:34;96530.44;;;8.13;46.51
46456;BME280;64052;47.466;9.094;2023-02-01T05:13:39;96530.06;;;8.19;46.62
46456;BME280;64052;47.466;9.094;2023-02-01T05:18:41;96527.50;;;8.05;46.51
46456;BME280;64052;47.466;9.094;2023-02-01T05:23:43;96517.47;;;7.97;47.51
46456;BME280;64052;47.466;9.094;2023-02-01T05:28:45;96513.75;;;8.14;47.27
46456;BME280;64052;47.466;9.094;2023-02-01T05:33:48;96490.66;;;8.19;46.40
46456;BME280;64052;47.466;9.094;2023-02-01T05:38:50;96479.75;;;8.25;46.69
46456;BME280;64052;47.466;9.094;2023-02-01T05:43:52;96473.91;;;8.07;47.43
46456;BME280;64052;47.466;9.094;2023-02-01T05:48:55;96477.53;;;8.19;46.93
46456;BME280;64052;47.466;9.094;2023-02-01T05:53:57;96483.97;;;8.00;47.67
46456;BME280;64052;47.466;9.094;2023-02-01T05:59:00;96503.44;;;8.11;47.16
46456;BME280;64052;47.466;9.094;2023-02-01T06:04:00;96516.81;;;8.21;47.16
46456;BME280;64052;47.466;9.094;2023-02-01T06:09:03;96514.59;;;8.14;47.37
46456;BME280;64052;47.466;9.094;2023-02-01T06:14:04;96514.16;;;8.08;46.90
46456;BME280;64052;47.466;9.094;2023-02-01T06:19:06;96505.81;;;8.01;46.91
46456;BME280;64052;47.466;9.094;2023-02-01T06:24:08;96509.72;;;8.08;46.76
46456;BME280;64052;47.466;9.094;2023-02-01T06:29:10;96514.81;;;8.11;47.11
46456;BME280;64052;47.466;9.094;2023-02-01T06:34:12;96501.47;;;8.14;46.40
46456;BME280;64052;47.466;9.094;2023-02-01T06:39:13;96497.97;;;8.14;46.64
46456;BME280;64052;47.466;9.094;2023-02-01T06:44:15;96507.38;;;8.18;46.18
46456;BME280;64052;47.466;9.094;2023-02-01T06:49:17;96530.22;;;8.30;46.20
46456;BME280;64052;47.466;9.094;2023-02-01T06:54:19;96535.78;;;8.39;45.75
46456;BME280;64052;47.466;9.094;2023-02-01T06:59:20;96547.44;;;8.35;45.97
46456;BME280;64052;47.466;9.094;2023-02-01T07:04:22;96564.56;;;8.27;46.04
46456;BME280;64052;47.466;9.094;2023-02-01T07:09:23;96573.81;;;8.06;46.77
46456;BME280;64052;47.466;9.094;2023-02-01T07:14:24;96570.25;;;8.07;47.08
46456;BME280;64052;47.466;9.094;2023-02-01T07:19:26;96576.50;;;8.19;46.49
46456;BME280;64052;47.466;9.094;2023-02-01T07:24:27;96585.53;;;8.14;46.17
46456;BME280;64052;47.466;9.094;2023-02-01T07:29:29;96576.66;;;8.02;47.06
46456;BME280;64052;47.466;9.094;2023-02-01T07:34:30;96576.66;;;8.02;48.82
46456;BME280;64052;47.466;9.094;2023-02-01T07:39:32;96593.69;;;8.10;49.51
46456;BME280;64052;47.466;9.094;2023-02-01T07:44:33;96597.16;;;7.96;49.69
46456;BME280;64052;47.466;9.094;2023-02-01T07:49:35;96604.50;;;7.91;50.24
46456;BME280;64052;47.466;9.094;2023-02-01T07:54:36;96593.63;;;7.82;50.74
46456;BME280;64052;47.466;9.094;2023-02-01T07:59:38;96583.34;;;7.65;52.18
46456;BME280;64052;47.466;9.094;2023-02-01T08:04:39;96591.31;;;7.63;52.21
46456;BME280;64052;47.466;9.094;2023-02-01T08:09:41;96583.91;;;7.55;52.78
46456;BME280;64052;47.466;9.094;2023-02-01T08:14:42;96575.47;;;7.50;53.42
46456;BME280;64052;47.466;9.094;2023-02-01T08:19:44;96555.22;;;7.52;52.58
46456;BME280;64052;47.466;9.094;2023-02-01T08:24:47;96556.38;;;7.48;52.41
46456;BME280;64052;47.466;9.094;2023-02-01T08:29:49;96567.50;;;7.66;52.13
46456;BME280;64052;47.466;9.094;2023-02-01T08:34:51;96561.13;;;7.70;51.99
46456;BME280;64052;47.466;9.094;2023-02-01T08:39:52;96563.47;;;7.61;52.21
46456;BME280;64052;47.466;9.094;2023-02-01T08:44:54;96585.28;;;7.76;52.21
46456;BME280;64052;47.466;9.094;2023-02-01T08:49:55;96578.78;;;7.96;51.28
46456;BME280;64052;47.466;9.094;2023-02-01T08:54:57;96586.53;;;8.12;51.82
46456;BME280;64052;47.466;9.094;2023-02-01T08:59:58;96594.88;;;8.19;51.24
46456;BME280;64052;47.466;9.094;2023-02-01T09:05:00;96597.06;;;8.12;51.65
46456;BME280;64052;47.466;9.094;2023-02-01T09:10:01;96609.41;;;8.24;51.10
46456;BME280;64052;47.466;9.094;2023-02-01T09:15:03;96611.59;;;8.18;52.15
46456;BME280;64052;47.466;9.094;2023-02-01T09:20:06;96605.00;;;8.25;51.59
46456;BME280;64052;47.466;9.094;2023-02-01T09:25:07;96597.63;;;8.17;51.09
46456;BME280;64052;47.466;9.094;2023-02-01T09:30:10;96600.56;;;8.40;50.87
46456;BME280;64052;47.466;9.094;2023-02-01T09:35:11;96596.66;;;8.46;50.05
46456;BME280;64052;47.466;9.094;2023-02-01T09:40:15;96606.06;;;8.50;50.24
46456;BME280;64052;47.466;9.094;2023-02-01T09:45:30;96629.63;;;8.51;49.96
46456;BME280;64052;47.466;9.094;2023-02-01T09:50:38;96644.38;;;8.54;49.93
46456;BME280;64052;47.466;9.094;2023-02-01T09:55:43;96632.84;;;8.69;49.89
46456;BME280;64052;47.466;9.094;2023-02-01T10:00:53;96636.28;;;8.84;49.34
46456;BME280;64052;47.466;9.094;2023-02-01T10:16:49;96594.19;;;8.84;49.76
46456;BME280;64052;47.466;9.094;2023-02-01T10:22:01;96590.41;;;8.89;50.25
46456;BME280;64052;47.466;9.094;2023-02-01T10:32:16;96575.53;;;9.15;48.74
46456;BME280;64052;47.466;9.094;2023-02-01T10:37:26;96560.78;;;8.99;49.16
46456;BME280;64052;47.466;9.094;2023-02-01T10:42:29;96557.44;;;9.23;48.79
46456;BME280;64052;47.466;9.094;2023-02-01T10:47:30;96546.16;;;9.34;48.67
46456;BME280;64052;47.466;9.094;2023-02-01T10:58:03;96557.72;;;8.93;48.83
46456;BME280;64052;47.466;9.094;2023-02-01T11:03:21;96558.91;;;9.14;49.00
46456;BME280;64052;47.466;9.094;2023-02-01T11:08:22;96558.81;;;9.29;48.34
46456;BME280;64052;47.466;9.094;2023-02-01T11:13:29;96543.84;;;9.42;48.29
46456;BME280;64052;47.466;9.094;2023-02-01T11:18:35;96539.72;;;9.51;47.89
46456;BME280;64052;47.466;9.094;2023-02-01T11:23:43;96542.41;;;9.89;47.08
46456;BME280;64052;47.466;9.094;2023-02-01T11:29:01;96522.00;;;11.24;44.41
46456;BME280;64052;47.466;9.094;2023-02-01T11:34:12;96506.00;;;14.36;38.21
46456;BME280;64052;47.466;9.094;2023-02-01T11:39:28;96498.47;;;17.13;32.19
46456;BME280;64052;47.466;9.094;2023-02-01T11:44:39;96503.75;;;17.58;31.90
46456;BME280;64052;47.466;9.094;2023-02-01T11:49:40;96501.09;;;18.77;28.73
46456;BME280;64052;47.466;9.094;2023-02-01T11:55:14;96488.16;;;20.35;26.25
46456;BME280;64052;47.466;9.094;2023-02-01T12:10:54;96476.84;;;21.63;24.00
46456;BME280;64052;47.466;9.094;2023-02-01T12:16:12;96471.84;;;22.05;23.47
46456;BME280;64052;47.466;9.094;2023-02-01T12:37:08;96452.06;;;14.65;33.38
46456;BME280;64052;47.466;9.094;2023-02-01T12:42:21;96441.25;;;16.00;31.43
46456;BME280;64052;47.466;9.094;2023-02-01T12:47:32;96427.47;;;17.04;29.96
46456;BME280;64052;47.466;9.094;2023-02-01T12:52:40;96429.31;;;17.73;27.95
46456;BME280;64052;47.466;9.094;2023-02-01T12:58:38;96441.22;;;17.52;28.84
46456;BME280;64052;47.466;9.094;2023-02-01T13:25:48;96409.59;;;11.65;39.31
46456;BME280;64052;47.466;9.094;2023-02-01T13:31:06;96397.50;;;11.51;39.37
46456;BME280;64052;47.466;9.094;2023-02-01T13:36:24;96391.94;;;11.66;39.71
46456;BME280;64052;47.466;9.094;2023-02-01T13:41:31;96393.16;;;11.62;39.85
46456;BME280;64052;47.466;9.094;2023-02-01T13:46:42;96397.19;;;11.22;40.58
46456;BME280;64052;47.466;9.094;2023-02-01T13:51:46;96390.94;;;11.23;40.54
46456;BME280;64052;47.466;9.094;2023-02-01T13:56:49;96401.75;;;11.20;39.95
46456;BME280;64052;47.466;9.094;2023-02-01T14:01:51;96400.06;;;10.96;40.21
46456;BME280;64052;47.466;9.094;2023-02-01T14:06:53;96397.44;;;10.96;40.37
46456;BME280;64052;47.466;9.094;2023-02-01T14:11:55;96405.84;;;11.13;40.67
46456;BME280;64052;47.466;9.094;2023-02-01T14:27:30;96432.69;;;10.95;40.14
46456;BME280;64052;47.466;9.094;2023-02-01T14:32:37;96440.09;;;10.67;40.92
46456;BME280;64052;47.466;9.094;2023-02-01T14:37:40;96460.47;;;10.40;41.95
46456;BME280;64052;47.466;9.094;2023-02-01T14:47:43;96454.34;;;10.64;41.62
46456;BME280;64052;47.466;9.094;2023-02-01T14:58:02;96440.09;;;10.67;41.42
46456;BME280;64052;47.466;9.094;2023-02-01T15:03:42;96430.44;;;10.43;41.74
46456;BME280;64052;47.466;9.094;2023-02-01T15:08:45;96446.75;;;10.48;41.92
46456;BME280;64052;47.466;9.094;2023-02-01T15:13:51;96436.75;;;10.40;41.51
46456;BME280;64052;47.466;9.094;2023-02-01T15:19:08;96432.41;;;10.52;41.20
46456;BME280;64052;47.466;9.094;2023-02-01T15:24:22;96427.88;;;10.66;41.12
46456;BME280;64052;47.466;9.094;2023-02-01T15:29:24;96436.22;;;10.60;41.31
46456;BME280;64052;47.466;9.094;2023-02-01T15:34:47;96444.75;;;10.27;41.28
46456;BME280;64052;47.466;9.094;2023-02-01T15:45:17;96471.94;;;10.52;40.24
46456;BME280;64052;47.466;9.094;2023-02-01T15:50:20;96470.53;;;10.35;40.56
46456;BME280;64052;47.466;9.094;2023-02-01T15:55:37;96475.91;;;10.34;40.38
46456;BME280;64052;47.466;9.094;2023-02-01T16:01:03;96496.41;;;10.54;40.33
46456;BME280;64052;47.466;9.094;2023-02-01T16:06:12;96509.50;;;10.67;40.19
46456;BME280;64052;47.466;9.094;2023-02-01T16:11:39;96511.75;;;10.61;39.99
46456;BME280;64052;47.466;9.094;2023-02-01T16:16:39;96518.66;;;10.26;40.63
46456;BME280;64052;47.466;9.094;2023-02-01T16:21:40;96514.25;;;10.26;40.23
46456;BME280;64052;47.466;9.094;2023-02-01T16:26:42;96524.94;;;10.36;40.13
46456;BME280;64052;47.466;9.094;2023-02-01T16:31:43;96543.94;;;10.29;40.28
46456;BME280;64052;47.466;9.094;2023-02-01T16:36:49;96543.09;;;10.04;39.93
46456;BME280;64052;47.466;9.094;2023-02-01T16:41:50;96544.31;;;9.74;40.82
46456;BME280;64052;47.466;9.094;2023-02-01T16:46:52;96545.44;;;9.95;40.84
46456;BME280;64052;47.466;9.094;2023-02-01T16:51:57;96549.25;;;9.91;40.94
46456;BME280;64052;47.466;9.094;2023-02-01T16:56:59;96554.53;;;9.78;40.75
46456;BME280;64052;47.466;9.094;2023-02-01T17:02:01;96557.38;;;9.88;40.64
46456;BME280;64052;47.466;9.094;2023-02-01T17:07:02;96573.84;;;10.03;40.72
46456;BME280;64052;47.466;9.094;2023-02-01T17:12:04;96561.78;;;10.01;40.31
46456;BME280;64052;47.466;9.094;2023-02-01T17:17:07;96546.72;;;9.90;39.79
46456;BME280;64052;47.466;9.094;2023-02-01T17:22:10;96541.28;;;10.04;39.54
46456;BME280;64052;47.466;9.094;2023-02-01T17:27:12;96545.53;;;9.94;40.15
46456;BME280;64052;47.466;9.094;2023-02-01T17:32:22;96548.28;;;9.92;40.00
46456;BME280;64052;47.466;9.094;2023-02-01T17:37:31;96559.88;;;9.90;39.36
46456;BME280;64052;47.466;9.094;2023-02-01T17:42:32;96559.66;;;9.93;39.42
46456;BME280;64052;47.466;9.094;2023-02-01T17:47:34;96550.38;;;10.00;39.13
46456;BME280;64052;47.466;9.094;2023-02-01T17:52:36;96565.84;;;10.05;39.70
46456;BME280;64052;47.466;9.094;2023-02-01T17:57:37;96556.19;;;9.29;40.71
46456;BME280;64052;47.466;9.094;2023-02-01T18:02:39;96548.66;;;9.62;40.16
46456;BME280;64052;47.466;9.094;2023-02-01T18:07:41;96560.16;;;9.48;40.70
46456;BME280;64052;47.466;9.094;2023-02-01T18:12:42;96558.78;;;9.55;40.36
46456;BME280;64052;47.466;9.094;2023-02-01T18:17:45;96551.41;;;9.60;39.83
46456;BME280;64052;47.466;9.094;2023-02-01T18:22:47;96546.25;;;9.59;40.26
46456;BME280;64052;47.466;9.094;2023-02-01T18:27:49;96555.06;;;9.83;39.64
46456;BME280;64052;47.466;9.094;2023-02-01T18:32:51;96542.94;;;9.81;40.30
46456;BME280;64052;47.466;9.094;2023-02-01T18:37:53;96556.53;;;9.75;40.04
46456;BME280;64052;47.466;9.094;2023-02-01T18:42:55;96560.66;;;9.79;40.22
46456;BME280;64052;47.466;9.094;2023-02-01T18:47:58;96561.78;;;9.75;40.23
46456;BME280;64052;47.466;9.094;2023-02-01T18:53:01;96568.31;;;9.82;40.21
46456;BME280;64052;47.466;9.094;2023-02-01T18:58:04;96551.06;;;9.78;40.22
46456;BME280;64052;47.466;9.094;2023-02-01T19:03:06;96567.47;;;9.81;40.75
46456;BME280;64052;47.466;9.094;2023-02-01T19:08:08;96566.25;;;9.74;40.49
46456;BME280;64052;47.466;9.094;2023-02-01T19:13:11;96574.69;;;9.66;41.25
46456;BME280;64052;47.466;9.094;2023-02-01T19:18:12;96591.00;;;9.59;40.84
46456;BME280;64052;47.466;9.094;2023-02-01T19:23:14;96590.06;;;9.60;41.36
46456;BME280;64052;47.466;9.094;2023-02-01T19:28:15;96606.06;;;9.56;41.83
46456;BME280;64052;47.466;9.094;2023-02-01T19:33:17;96601.88;;;9.54;42.08
46456;BME280;64052;47.466;9.094;2023-02-01T19:38:18;96619.22;;;9.44;42.67
46456;BME280;64052;47.466;9.094;2023-02-01T19:43:20;96614.59;;;9.47;41.62
46456;BME280;64052;47.466;9.094;2023-02-01T19:48:21;96609.44;;;9.46;42.21
46456;BME280;64052;47.466;9.094;2023-02-01T19:53:23;96612.78;;;9.48;42.58
46456;BME280;64052;47.466;9.094;2023-02-01T19:58:25;96612.16;;;9.31;42.73
46456;BME280;64052;47.466;9.094;2023-02-01T20:03:27;96616.88;;;9.26;43.20
46456;BME280;64052;47.466;9.094;2023-02-01T20:08:28;96619.94;;;9.20;43.11
46456;BME280;64052;47.466;9.094;2023-02-01T20:13:30;96626.38;;;9.28;43.13
46456;BME280;64052;47.466;9.094;2023-02-01T20:18:31;96624.25;;;9.21;42.91
46456;BME280;64052;47.466;9.094;2023-02-01T20:23:34;96622.28;;;9.24;43.05
46456;BME280;64052;47.466;9.094;2023-02-01T20:28:35;96627.72;;;9.08;43.23
46456;BME280;64052;47.466;9.094;2023-02-01T20:33:37;96638.16;;;9.23;42.65
46456;BME280;64052;47.466;9.094;2023-02-01T20:38:39;96633.66;;;9.38;42.73
46456;BME280;64052;47.466;9.094;2023-02-01T20:43:40;96630.16;;;9.37;41.91
46456;BME280;64052;47.466;9.094;2023-02-01T20:48:46;96640.50;;;9.40;41.64
46456;BME280;64052;47.466;9.094;2023-02-01T20:53:48;96634.50;;;9.38;41.74
46456;BME280;64052;47.466;9.094;2023-02-01T20:58:49;96625.22;;;9.46;41.06
46456;BME280;64052;47.466;9.094;2023-02-01T21:03:51;96631.41;;;9.32;41.35
46456;BME280;64052;47.466;9.094;2023-02-01T21:08:52;96644.50;;;9.46;41.14
46456;BME280;64052;47.466;9.094;2023-02-01T21:13:54;96649.47;;;9.51;41.05
46456;BME280;64052;47.466;9.094;2023-02-01T21:18:55;96630.19;;;9.63;40.91
46456;BME280;64052;47.466;9.094;2023-02-01T21:23:57;96629.44;;;9.61;41.19
46456;BME280;64052;47.466;9.094;2023-02-01T21:28:59;96642.09;;;9.56;41.30
46456;BME280;64052;47.466;9.094;2023-02-01T21:34:01;96639.13;;;9.48;41.71
46456;BME280;64052;47.466;9.094;2023-02-01T21:39:05;96633.66;;;9.51;42.28
46456;BME280;64052;47.466;9.094;2023-02-01T21:44:08;96653.03;;;9.37;42.79
46456;BME280;64052;47.466;9.094;2023-02-01T21:49:09;96642.88;;;9.18;42.89
46456;BME280;64052;47.466;9.094;2023-02-01T21:54:12;96640.13;;;9.19;42.88
46456;BME280;64052;47.466;9.094;2023-02-01T21:59:13;96635.81;;;9.05;43.72
46456;BME280;64052;47.466;9.094;2023-02-01T22:04:15;96631.50;;;9.17;43.60
46456;BME280;64052;47.466;9.094;2023-02-01T22:09:18;96623.75;;;9.16;43.61
46456;BME280;64052;47.466;9.094;2023-02-01T22:14:20;96636.13;;;9.00;43.70
46456;BME280;64052;47.466;9.094;2023-02-01T22:19:22;96649.34;;;8.99;43.44
46456;BME280;64052;47.466;9.094;2023-02-01T22:24:23;96651.47;;;9.47;42.96
46456;BME280;64052;47.466;9.094;2023-02-01T22:29:25;96647.22;;;9.45;42.74
46456;BME280;64052;47.466;9.094;2023-02-01T22:34:26;96647.88;;;9.48;43.39
46456;BME280;64052;47.466;9.094;2023-02-01T22:39:28;96645.53;;;9.56;42.94
46456;BME280;64052;47.466;9.094;2023-02-01T22:44:29;96645.13;;;9.63;42.25
46456;BME280;64052;47.466;9.094;2023-02-01T22:49:31;96646.94;;;9.75;42.35
46456;BME280;64052;47.466;9.094;2023-02-01T22:54:32;96655.03;;;9.72;42.13
46456;BME280;64052;47.466;9.094;2023-02-01T22:59:34;96655.47;;;9.79;42.49
46456;BME280;64052;47.466;9.094;2023-02-01T23:04:36;96647.00;;;9.74;42.55
46456;BME280;64052;47.466;9.094;2023-02-01T23:09:37;96650.94;;;9.55;42.56
46456;BME280;64052;47.466;9.094;2023-02-01T23:14:39;96647.13;;;9.59;43.23
46456;BME280;64052;47.466;9.094;2023-02-01T23:19:40;96648.50;;;9.39;43.31
46456;BME280;64052;47.466;9.094;2023-02-01T23:24:42;96643.09;;;9.27;43.52
46456;BME280;64052;47.466;9.094;2023-02-01T23:29:43;96641.22;;;9.30;43.85
46456;BME280;64052;47.466;9.094;2023-02-01T23:34:45;96645.53;;;9.31;43.86
46456;BME280;64052;47.466;9.094;2023-02-01T23:39:46;96646.28;;;9.33;43.77
46456;BME280;64052;47.466;9.094;2023-02-01T23:44:48;96647.75;;;9.37;43.83
46456;BME280;64052;47.466;9.094;2023-02-01T23:49:49;96641.00;;;9.20;44.23
46456;BME280;64052;47.466;9.094;2023-02-01T23:54:51;96660.16;;;9.22;44.33
46456;BME280;64052;47.466;9.094;2023-02-01T23:59:52;96643.97;;;9.28;44.02
